Bethlehem Center, New York
Current Conditions -  °F | °C
As of 11:51 AM on Friday 24 Oct 2014 (Local Time) from KALB Reporting Station
Drizzle Drizzle  
Wind Chill:   Ceiling: 600
Heat Index:   Visibility: 4mi
Dew Point:   Wind: 3mph
Humidity: 90%   Direction: 30°NNE
Pressure: 29.86"   Gusts: NA
Location:  42.5925°N, 73.7845°W
Report Text: KALB 241551Z 03003KT 4SM -DZ BR FEW004 BKN006 OVC012 08/07 A2986 RMK AO2 RAE07B35E48DZB07E19B48 SLP112 VIS W-NW 2 P0002 T00830067 $
Loading
Personal Weather Stations






























Interactive Weather Map
Tropical Storm Tracking
New forecast layout! Learn more

10-Day Weather Forecast

Advertisements
Track Severe Weather on mobile